Time;durP1;ratioP1;P1;durP2;ratioP2;P2;SDS_P1;SDS_P2;PMS_P1;PMS_P2;Temp;Humidity;BMP_temperature;BMP_pressure;BME280_temperature;BME280_humidity;BME280_pressure;Samples;Min_cycle;Max_cycle;Signal;HPM_P1;HPM_P2
2022/04/23 00:03:41;;;;;;;12.70;7.93;;;12.90;99.90;;;;;;6703085;88;20334;-77
2022/04/23 00:13:42;;;;;;;10.25;7.47;;;12.90;99.90;;;;;;6760216;88;20377;-78
2022/04/23 00:23:43;;;;;;;11.00;7.55;;;12.80;99.90;;;;;;6760844;88;20258;-78
2022/04/23 00:33:43;;;;;;;12.10;8.07;;;12.60;99.90;;;;;;6764338;88;20172;-78
2022/04/23 00:43:48;;;;;;;13.43;7.65;;;12.40;99.90;;;;;;6674456;89;20227;-79
2022/04/23 00:53:50;;;;;;;14.02;8.07;;;12.30;99.90;;;;;;6761995;88;20277;-78
2022/04/23 01:03:52;;;;;;;12.82;8.77;;;12.20;99.90;;;;;;6760941;88;20238;-77
2022/04/23 01:13:53;;;;;;;12.27;8.13;;;12.10;99.90;;;;;;6696583;88;20969;-78
2022/04/23 01:23:56;;;;;;;13.10;8.77;;;12.00;99.90;;;;;;6675107;89;20184;-80
2022/04/23 01:33:57;;;;;;;12.98;9.18;;;11.90;99.90;;;;;;6668579;89;20191;-77
2022/04/23 01:43:57;;;;;;;13.70;9.20;;;11.80;99.90;;;;;;6669819;89;20214;-78
2022/04/23 01:53:58;;;;;;;13.23;9.50;;;11.60;99.90;;;;;;6673301;89;20199;-78
2022/04/23 02:03:59;;;;;;;16.90;10.52;;;11.40;99.90;;;;;;6672813;88;21221;-77
2022/04/23 02:14:02;;;;;;;17.15;10.93;;;11.20;99.90;;;;;;6667582;89;20235;-78
2022/04/23 02:24:04;;;;;;;18.83;11.20;;;11.00;99.90;;;;;;6657984;88;20208;-78
2022/04/23 02:34:04;;;;;;;17.17;11.48;;;11.10;99.90;;;;;;6667513;89;20216;-78
2022/04/23 02:44:05;;;;;;;18.17;11.55;;;11.00;99.90;;;;;;6668411;88;20196;-78
2022/04/23 02:54:06;;;;;;;19.25;12.00;;;11.00;99.90;;;;;;6668751;88;20190;-78
2022/04/23 03:04:09;;;;;;;19.55;12.77;;;10.90;99.90;;;;;;6703216;88;20779;-78
2022/04/23 03:14:10;;;;;;;18.55;11.85;;;10.90;99.90;;;;;;6742393;88;20282;-78
2022/04/23 03:24:11;;;;;;;20.42;12.80;;;10.70;99.90;;;;;;6729243;88;20658;-77
2022/04/23 03:34:11;;;;;;;20.12;12.50;;;10.60;99.90;;;;;;6662658;89;20228;-77
2022/04/23 03:44:12;;;;;;;20.52;12.70;;;10.60;99.90;;;;;;6666724;88;20254;-77
2022/04/23 03:54:12;;;;;;;18.42;12.45;;;10.70;99.90;;;;;;6661386;89;20204;-78
2022/04/23 04:04:14;;;;;;;20.50;12.37;;;10.50;99.90;;;;;;6665226;88;20218;-78
2022/04/23 04:14:15;;;;;;;22.90;12.93;;;10.40;99.90;;;;;;6661077;88;20365;-78
2022/04/23 04:24:16;;;;;;;18.90;12.13;;;10.20;99.90;;;;;;6687043;88;20197;-78
2022/04/23 04:34:24;;;;;;;18.52;12.70;;;9.90;99.90;;;;;;6702408;88;20247;-79
2022/04/23 04:44:25;;;;;;;21.12;13.32;;;10.00;99.90;;;;;;6676145;89;20213;-78
2022/04/23 04:54:25;;;;;;;20.60;12.77;;;10.00;99.90;;;;;;6670855;88;20216;-78
2022/04/23 05:04:27;;;;;;;20.98;12.48;;;10.00;99.90;;;;;;6670240;89;20277;-78
2022/04/23 05:14:27;;;;;;;19.58;12.02;;;10.10;99.90;;;;;;6670065;89;20714;-78
2022/04/23 05:24:28;;;;;;;18.05;12.18;;;10.10;99.90;;;;;;6670469;89;20304;-78
2022/04/23 05:34:29;;;;;;;17.75;11.60;;;10.20;99.90;;;;;;6670350;89;20191;-78
2022/04/23 05:44:29;;;;;;;18.00;11.32;;;10.40;99.90;;;;;;6665384;89;20818;-77
2022/04/23 05:54:30;;;;;;;16.42;10.45;;;10.90;99.90;;;;;;6668202;88;20329;-78
2022/04/23 06:04:30;;;;;;;19.70;11.73;;;11.00;99.90;;;;;;6671214;88;20200;-78
2022/04/23 06:14:31;;;;;;;17.45;11.35;;;11.60;99.90;;;;;;6671462;88;20728;-79
2022/04/23 06:24:35;;;;;;;15.15;10.48;;;11.60;99.90;;;;;;6670916;88;20613;-78
2022/04/23 06:34:39;;;;;;;15.23;10.48;;;12.00;99.90;;;;;;6670905;88;20184;-79
2022/04/23 06:44:40;;;;;;;13.02;8.35;;;12.40;99.90;;;;;;6670027;88;20194;-78
2022/04/23 06:54:40;;;;;;;11.90;7.10;;;12.80;99.90;;;;;;6656256;88;20250;-79
2022/04/23 07:04:41;;;;;;;11.55;6.65;;;13.30;99.90;;;;;;6649442;89;20584;-76
2022/04/23 07:14:41;;;;;;;9.13;6.20;;;13.60;99.90;;;;;;6657716;89;20220;-78
2022/04/23 07:24:42;;;;;;;8.60;5.62;;;13.70;99.90;;;;;;6668981;88;20214;-78
2022/04/23 07:45:01;;;;;;;11.00;5.82;;;14.50;99.90;;;;;;6668326;88;20260;-76
2022/04/23 07:55:02;;;;;;;13.88;6.32;;;14.90;99.90;;;;;;6673317;88;20415;-78
2022/04/23 08:05:03;;;;;;;8.52;5.87;;;15.30;99.90;;;;;;6694475;88;20770;-78
2022/04/23 08:15:45;;;;;;;9.38;5.72;;;15.30;99.90;;;;;;6727646;78;20193;-83
2022/04/23 08:25:47;;;;;;;10.30;5.57;;;15.90;99.90;;;;;;6733761;88;20236;-80
2022/04/23 08:35:48;;;;;;;8.50;5.15;;;15.90;99.90;;;;;;6745984;88;20198;-84
2022/04/23 09:06:36;;;;;;;6.95;4.87;;;16.50;99.90;;;;;;6712572;78;20194;-84
2022/04/23 09:36:54;;;;;;;5.75;4.55;;;17.90;98.00;;;;;;6749236;88;20212;-81
2022/04/23 09:46:56;;;;;;;6.65;4.82;;;18.50;97.00;;;;;;6711504;88;20152;-81
2022/04/23 09:56:57;;;;;;;5.35;4.35;;;18.10;97.10;;;;;;6726704;88;20214;-79
2022/04/23 10:07:00;;;;;;;7.12;4.72;;;18.50;96.70;;;;;;6734391;88;20231;-78
2022/04/23 10:17:05;;;;;;;6.57;4.53;;;18.20;97.10;;;;;;6708040;88;20198;-79
2022/04/23 10:27:09;;;;;;;11.60;5.10;;;19.40;96.20;;;;;;6707590;88;20301;-76
2022/04/23 10:37:14;;;;;;;7.80;4.85;;;18.40;95.90;;;;;;6730937;88;20656;-77
2022/04/23 10:47:33;;;;;;;6.50;4.50;;;19.40;95.10;;;;;;6731280;88;20223;-78
2022/04/23 10:57:34;;;;;;;7.47;4.20;;;19.60;94.10;;;;;;6727569;88;20258;-78
2022/04/23 11:17:58;;;;;;;8.55;5.03;;;19.60;93.00;;;;;;6732492;88;20177;-77
2022/04/23 11:28:16;;;;;;;6.87;4.33;;;19.10;93.30;;;;;;6741942;88;20169;-79
2022/04/23 11:38:19;;;;;;;7.93;3.95;;;19.30;93.50;;;;;;6729227;88;20186;-77
2022/04/23 11:48:19;;;;;;;8.57;4.40;;;20.30;91.90;;;;;;6722037;88;20205;-78
2022/04/23 11:58:21;;;;;;;9.25;4.10;;;19.50;92.10;;;;;;6722744;88;20230;-78
2022/04/23 12:08:21;;;;;;;6.97;4.30;;;18.90;92.50;;;;;;6739737;88;20222;-78
2022/04/23 12:18:23;;;;;;;7.85;4.07;;;18.90;92.60;;;;;;6747069;88;20197;-80
2022/04/23 12:49:21;;;;;;;9.10;6.40;;;18.30;92.80;;;;;;6735293;88;20716;-80
2022/04/23 12:59:21;;;;;;;11.40;5.68;;;18.20;94.10;;;;;;6733541;88;20200;-80
2022/04/23 13:09:22;;;;;;;8.25;5.18;;;19.10;92.70;;;;;;6735893;88;20189;-79
2022/04/23 13:19:22;;;;;;;8.80;6.07;;;19.30;92.10;;;;;;6740880;88;20451;-80
2022/04/23 13:29:23;;;;;;;8.18;5.80;;;18.90;92.60;;;;;;6748418;88;20699;-80
2022/04/23 13:39:23;;;;;;;10.77;7.50;;;18.40;93.10;;;;;;6749335;88;20726;-80
2022/04/23 13:49:24;;;;;;;12.00;7.62;;;18.50;93.60;;;;;;6731385;88;20220;-81
2022/04/23 13:59:25;;;;;;;11.90;6.97;;;18.50;93.20;;;;;;6732132;88;20206;-81
2022/04/23 14:19:28;;;;;;;9.05;6.32;;;19.10;91.90;;;;;;6739940;88;20196;-78
2022/04/23 14:29:29;;;;;;;8.77;5.90;;;19.40;91.70;;;;;;6730728;88;20248;-78
2022/04/23 14:39:29;;;;;;;8.30;4.93;;;19.60;90.80;;;;;;6734661;88;20771;-78
2022/04/23 14:49:30;;;;;;;6.68;5.00;;;19.10;91.00;;;;;;6734125;88;20406;-78
2022/04/23 14:59:30;;;;;;;6.75;4.82;;;19.40;91.00;;;;;;6737106;88;20326;-78
2022/04/23 15:09:32;;;;;;;9.80;6.35;;;19.30;90.90;;;;;;6740832;88;20190;-78
2022/04/23 15:19:33;;;;;;;10.60;7.43;;;18.20;91.70;;;;;;6720759;88;20633;-78
2022/04/23 15:29:34;;;;;;;11.65;8.43;;;18.20;92.50;;;;;;6708893;88;20197;-79
2022/04/23 15:39:34;;;;;;;16.30;10.07;;;18.50;92.80;;;;;;6709539;88;20220;-79
2022/04/23 15:49:35;;;;;;;13.55;9.63;;;18.10;93.30;;;;;;6708434;88;20756;-78
2022/04/23 15:59:35;;;;;;;16.87;10.35;;;17.90;93.80;;;;;;6708380;88;20205;-79
2022/04/23 16:09:37;;;;;;;12.95;9.73;;;17.70;93.60;;;;;;6713199;88;20189;-80
2022/04/23 16:19:38;;;;;;;17.60;10.85;;;17.90;94.00;;;;;;6737183;88;20675;-79
2022/04/23 16:29:38;;;;;;;15.60;10.55;;;17.20;94.40;;;;;;6752217;88;20224;-79
2022/04/23 16:49:58;;;;;;;18.73;11.40;;;17.10;95.00;;;;;;6733234;88;20234;-79
2022/04/23 16:59:59;;;;;;;16.30;10.40;;;17.10;95.00;;;;;;6741777;88;20202;-78
2022/04/23 17:10:00;;;;;;;14.55;10.32;;;17.00;95.10;;;;;;6739682;88;20196;-79
2022/04/23 17:20:00;;;;;;;15.80;10.15;;;16.90;95.20;;;;;;6740948;88;20197;-78
2022/04/23 17:30:03;;;;;;;14.75;9.88;;;16.80;95.20;;;;;;6729897;88;20200;-79
2022/04/23 17:40:05;;;;;;;13.02;9.40;;;16.70;95.60;;;;;;6730154;88;20189;-80
2022/04/23 17:50:06;;;;;;;13.90;9.52;;;16.60;96.00;;;;;;6728414;88;20218;-79
2022/04/23 18:20:46;;;;;;;13.62;8.57;;;16.50;95.80;;;;;;6738102;88;20189;-80
2022/04/23 18:30:46;;;;;;;10.75;8.10;;;16.50;96.20;;;;;;6751368;88;20198;-79
2022/04/23 18:40:47;;;;;;;11.73;8.73;;;16.40;96.50;;;;;;6745963;88;20716;-79
2022/04/23 18:50:48;;;;;;;11.38;8.43;;;16.10;97.00;;;;;;6745730;88;20239;-80
2022/04/23 19:00:57;;;;;;;10.80;8.68;;;16.00;97.30;;;;;;6737943;88;20724;-79
2022/04/23 19:10:58;;;;;;;12.50;8.27;;;15.90;98.00;;;;;;6744655;88;20365;-79
2022/04/23 19:31:19;;;;;;;10.50;8.13;;;16.00;96.80;;;;;;6712030;88;20287;-80
2022/04/23 19:41:19;;;;;;;10.82;7.72;;;15.90;96.90;;;;;;6716358;88;20348;-78
2022/04/23 19:51:22;;;;;;;11.43;7.68;;;15.90;96.70;;;;;;6721879;88;20724;-79
2022/04/23 20:01:23;;;;;;;10.82;8.27;;;15.60;97.00;;;;;;6721611;88;20213;-80
2022/04/23 20:22:25;;;;;;;8.70;6.95;;;15.50;96.80;;;;;;6760899;88;20176;-80
2022/04/23 20:32:26;;;;;;;8.63;6.65;;;15.40;96.80;;;;;;6757778;87;20681;-80
2022/04/23 20:42:26;;;;;;;10.10;6.97;;;15.20;97.00;;;;;;6759412;87;20188;-81
2022/04/23 21:02:46;;;;;;;8.15;6.35;;;14.80;97.30;;;;;;6759109;87;20938;-80
2022/04/23 21:12:47;;;;;;;10.18;6.78;;;14.70;97.30;;;;;;6763076;88;20370;-79
2022/04/23 21:22:47;;;;;;;7.18;5.70;;;14.50;97.60;;;;;;6756152;88;20215;-79
2022/04/23 21:32:48;;;;;;;9.52;6.43;;;14.30;97.20;;;;;;6747973;88;20228;-79
2022/04/23 21:53:07;;;;;;;12.02;5.57;;;13.90;97.40;;;;;;6746935;88;20202;-79
2022/04/23 22:03:10;;;;;;;6.78;5.18;;;13.90;97.00;;;;;;6754147;88;20875;-79
2022/04/23 22:13:10;;;;;;;6.40;5.10;;;13.70;97.00;;;;;;6752048;88;20202;-79
2022/04/23 22:23:11;;;;;;;8.50;4.85;;;13.40;97.60;;;;;;6761506;88;20917;-81
2022/04/23 22:33:13;;;;;;;7.70;4.62;;;13.30;97.60;;;;;;6760385;88;20195;-79
2022/04/23 22:43:15;;;;;;;6.35;4.22;;;13.20;97.30;;;;;;6766746;88;20192;-80
2022/04/23 22:53:16;;;;;;;6.43;4.03;;;13.00;97.60;;;;;;6762669;88;20167;-80
2022/04/23 23:03:16;;;;;;;5.57;4.18;;;12.80;97.80;;;;;;6764147;88;20188;-80
2022/04/23 23:13:17;;;;;;;5.90;4.10;;;12.40;99.50;;;;;;6757947;88;20274;-78
2022/04/23 23:23:17;;;;;;;6.55;4.18;;;12.20;99.90;;;;;;6748591;88;20932;-79
2022/04/23 23:33:18;;;;;;;5.47;4.30;;;12.10;99.90;;;;;;6744178;88;20278;-79
2022/04/23 23:43:18;;;;;;;8.07;5.10;;;11.90;99.90;;;;;;6740913;88;20217;-79
2022/04/23 23:53:19;;;;;;;6.32;4.30;;;11.70;99.90;;;;;;6745860;88;20229;-79
